Time;durP1;ratioP1;P1;durP2;ratioP2;P2;SDS_P1;SDS_P2;PMS_P1;PMS_P2;Temp;Humidity;BMP_temperature;BMP_pressure;BME280_temperature;BME280_humidity;BME280_pressure;Samples;Min_cycle;Max_cycle;Signal;HPM_P1;HPM_P2
2022/01/04 00:01:44;;;;;;;3.03;1.10;;;8.00;99.90;;;;;;5075590;28;20212;-80
2022/01/04 00:04:11;;;;;;;0.50;0.40;;;8.00;99.90;;;;;;5075754;28;20200;-80
2022/01/04 00:06:37;;;;;;;0.60;0.52;;;7.90;99.90;;;;;;5075766;28;20605;-79
2022/01/04 00:09:06;;;;;;;0.40;0.30;;;7.90;99.90;;;;;;5074492;28;20220;-80
2022/01/04 00:11:44;;;;;;;0.45;0.40;;;7.90;99.90;;;;;;5075291;28;20206;-80
2022/01/04 00:14:13;;;;;;;2.72;2.08;;;7.90;99.90;;;;;;5076187;28;20182;-80
2022/01/04 00:16:40;;;;;;;0.70;0.50;;;7.90;99.90;;;;;;5075603;28;20197;-80
2022/01/04 00:19:07;;;;;;;1.13;0.85;;;7.90;99.90;;;;;;5075036;28;20218;-80
2022/01/04 00:21:34;;;;;;;0.50;0.50;;;7.80;99.90;;;;;;5075576;28;20208;-80
2022/01/04 00:24:01;;;;;;;0.43;0.40;;;7.80;99.90;;;;;;5076107;28;20201;-80
2022/01/04 00:26:28;;;;;;;0.40;0.40;;;7.80;99.90;;;;;;5075580;28;20207;-81
2022/01/04 00:28:55;;;;;;;0.50;0.43;;;7.80;99.90;;;;;;5075263;28;20234;-80
2022/01/04 00:31:23;;;;;;;0.98;0.98;;;7.80;99.90;;;;;;5076115;28;20206;-80
2022/01/04 00:33:50;;;;;;;0.40;0.38;;;7.70;99.90;;;;;;5096618;28;20181;-82
2022/01/04 00:36:17;;;;;;;0.50;0.38;;;7.70;99.90;;;;;;5097445;28;20194;-80
2022/01/04 00:38:43;;;;;;;0.40;0.40;;;7.70;99.90;;;;;;5096926;28;20361;-80
2022/01/04 00:41:10;;;;;;;0.57;0.47;;;7.70;99.90;;;;;;5097416;28;20253;-81
2022/01/04 00:43:37;;;;;;;0.40;0.40;;;7.70;99.90;;;;;;5097127;28;20205;-80
2022/01/04 00:46:04;;;;;;;0.50;0.40;;;7.60;99.90;;;;;;5096749;28;20177;-79
2022/01/04 00:51:16;;;;;;;0.45;0.40;;;7.60;99.90;;;;;;5095842;28;20231;-80
2022/01/04 00:53:43;;;;;;;1.13;0.52;;;7.60;99.90;;;;;;5097111;28;20196;-81
2022/01/04 00:56:10;;;;;;;0.40;0.38;;;7.60;99.90;;;;;;5096533;28;20292;-79
2022/01/04 00:58:36;;;;;;;1.45;1.17;;;7.60;99.90;;;;;;5096055;28;20177;-80
2022/01/04 01:01:03;;;;;;;0.40;0.40;;;7.50;99.90;;;;;;5096845;28;20211;-80
2022/01/04 01:03:31;;;;;;;0.50;0.45;;;7.50;99.90;;;;;;5097186;28;20196;-80
2022/01/04 01:05:58;;;;;;;0.40;0.30;;;7.50;99.90;;;;;;5097075;28;20219;-79
2022/01/04 01:08:25;;;;;;;0.40;0.40;;;7.50;99.90;;;;;;5096667;28;20178;-81
2022/01/04 01:10:51;;;;;;;0.40;0.40;;;7.50;99.90;;;;;;5096075;28;20212;-80
2022/01/04 01:13:18;;;;;;;2.55;0.60;;;7.50;99.90;;;;;;5096947;28;20194;-82
2022/01/04 01:15:46;;;;;;;0.40;0.40;;;7.40;99.90;;;;;;5096969;28;20192;-81
2022/01/04 01:18:17;;;;;;;0.40;0.40;;;7.40;99.90;;;;;;5096354;28;20176;-80
2022/01/04 01:20:48;;;;;;;0.40;0.40;;;7.40;99.90;;;;;;5095511;28;20220;-82
2022/01/04 01:23:14;;;;;;;0.40;0.30;;;7.40;99.90;;;;;;5076708;28;20182;-80
2022/01/04 01:25:41;;;;;;;0.40;0.30;;;7.40;99.90;;;;;;5073182;28;20197;-80
2022/01/04 01:28:08;;;;;;;0.50;0.40;;;7.40;99.90;;;;;;5073338;28;20209;-80
2022/01/04 01:30:38;;;;;;;0.40;0.40;;;7.30;99.90;;;;;;5073337;28;20225;-77
2022/01/04 01:33:05;;;;;;;0.40;0.30;;;7.30;99.90;;;;;;5073670;28;20662;-80
2022/01/04 01:35:33;;;;;;;2.35;0.50;;;7.30;99.90;;;;;;5073526;28;20195;-80
2022/01/04 01:38:01;;;;;;;0.40;0.30;;;7.30;99.90;;;;;;5073371;28;20202;-80
2022/01/04 01:40:28;;;;;;;0.40;0.32;;;7.30;99.90;;;;;;5073303;28;20217;-80
2022/01/04 01:42:55;;;;;;;0.40;0.30;;;7.20;99.90;;;;;;5074583;28;20251;-80
2022/01/04 01:45:23;;;;;;;0.40;0.30;;;7.20;99.90;;;;;;5077593;28;20193;-80
2022/01/04 01:47:50;;;;;;;0.70;0.40;;;7.20;99.90;;;;;;5077637;28;20599;-80
2022/01/04 01:50:18;;;;;;;0.90;0.90;;;7.20;99.90;;;;;;5078204;28;20743;-79
2022/01/04 01:52:47;;;;;;;0.50;0.50;;;7.20;99.90;;;;;;5084957;28;20201;-80
2022/01/04 01:55:16;;;;;;;2.35;0.50;;;7.20;99.90;;;;;;5085626;28;20661;-80
2022/01/04 01:57:43;;;;;;;0.40;0.40;;;7.30;99.90;;;;;;5084900;28;20208;-80
2022/01/04 02:00:14;;;;;;;0.50;0.50;;;7.20;99.90;;;;;;5082845;28;20217;-80
2022/01/04 02:02:41;;;;;;;0.50;0.50;;;7.20;99.90;;;;;;5085333;28;20205;-79
2022/01/04 02:05:10;;;;;;;0.75;0.50;;;7.20;99.90;;;;;;5094932;28;20206;-80
2022/01/04 02:07:38;;;;;;;0.50;0.40;;;7.30;99.90;;;;;;5098113;28;20195;-79
2022/01/04 02:10:07;;;;;;;0.40;0.40;;;7.30;99.90;;;;;;5094758;28;20208;-80
2022/01/04 02:12:37;;;;;;;0.40;0.30;;;7.30;99.90;;;;;;5094575;28;20196;-80
2022/01/04 02:15:04;;;;;;;2.25;1.33;;;7.30;99.90;;;;;;5089889;28;20551;-80
2022/01/04 02:17:31;;;;;;;0.40;0.38;;;7.30;99.90;;;;;;5088152;28;20692;-80
2022/01/04 02:20:00;;;;;;;0.65;0.65;;;7.30;99.90;;;;;;5090162;28;20216;-81
2022/01/04 02:22:28;;;;;;;0.40;0.30;;;7.30;99.90;;;;;;5096842;28;20188;-81
2022/01/04 02:24:55;;;;;;;0.98;0.98;;;7.30;99.90;;;;;;5095309;28;20194;-80
2022/01/04 02:27:22;;;;;;;1.90;1.80;;;7.40;99.90;;;;;;5090274;28;20196;-81
2022/01/04 02:29:50;;;;;;;0.82;0.73;;;7.30;99.90;;;;;;5085883;28;20579;-81
2022/01/04 02:32:16;;;;;;;0.50;0.40;;;7.30;99.90;;;;;;5090431;28;20197;-80
2022/01/04 02:34:48;;;;;;;0.50;0.50;;;7.30;99.90;;;;;;5087037;28;20195;-79
2022/01/04 02:37:21;;;;;;;0.50;0.50;;;7.30;99.90;;;;;;5091479;28;20180;-80
2022/01/04 02:39:48;;;;;;;0.40;0.40;;;7.30;99.90;;;;;;5089612;28;20220;-80
2022/01/04 02:42:15;;;;;;;0.40;0.40;;;7.30;99.90;;;;;;5095993;28;20190;-80
2022/01/04 02:44:42;;;;;;;3.42;0.80;;;7.30;99.90;;;;;;5089172;28;20200;-76
2022/01/04 02:47:10;;;;;;;2.97;0.88;;;7.30;99.90;;;;;;5091336;28;20194;-81
2022/01/04 02:49:36;;;;;;;2.78;2.28;;;7.30;99.90;;;;;;5142656;22;20219;-76
2022/01/04 02:52:04;;;;;;;0.40;0.30;;;7.30;99.90;;;;;;5124242;27;20554;-82
2022/01/04 02:54:32;;;;;;;0.70;0.70;;;7.30;99.90;;;;;;5127320;27;20200;-82
2022/01/04 02:56:59;;;;;;;0.40;0.40;;;7.30;99.90;;;;;;5140201;27;20201;-81
2022/01/04 02:59:26;;;;;;;0.40;0.30;;;7.20;99.90;;;;;;5139922;27;20195;-81
2022/01/04 03:01:53;;;;;;;0.60;0.60;;;7.20;99.90;;;;;;5140825;27;20197;-81
2022/01/04 03:04:21;;;;;;;0.68;0.68;;;7.30;99.90;;;;;;5140915;27;20199;-81
2022/01/04 03:06:48;;;;;;;1.83;1.73;;;7.20;99.90;;;;;;5140045;27;20247;-80
2022/01/04 03:09:15;;;;;;;0.40;0.35;;;7.30;99.90;;;;;;5141119;27;20590;-81
2022/01/04 03:11:43;;;;;;;0.73;0.73;;;7.20;99.90;;;;;;5140965;27;20217;-81
2022/01/04 03:14:10;;;;;;;0.70;0.60;;;7.20;99.90;;;;;;5141151;27;20190;-81
2022/01/04 03:16:36;;;;;;;1.30;1.30;;;7.20;99.90;;;;;;5141143;27;20196;-79
2022/01/04 03:19:06;;;;;;;0.40;0.40;;;7.20;99.90;;;;;;5140811;27;20300;-80
2022/01/04 03:21:33;;;;;;;0.40;0.32;;;7.20;99.90;;;;;;5142778;27;20297;-81
2022/01/04 03:24:00;;;;;;;1.55;1.45;;;7.20;99.90;;;;;;5144162;27;20197;-80
2022/01/04 03:26:27;;;;;;;1.50;1.40;;;7.20;99.90;;;;;;5143876;27;20200;-81
2022/01/04 03:28:55;;;;;;;1.40;1.30;;;7.20;99.90;;;;;;5142615;27;20197;-81
2022/01/04 03:31:22;;;;;;;0.73;0.47;;;7.20;99.90;;;;;;5145526;27;20584;-80
2022/01/04 03:33:49;;;;;;;1.08;1.08;;;7.20;99.90;;;;;;5145320;27;20557;-81
2022/01/04 03:36:20;;;;;;;1.05;0.95;;;7.20;99.90;;;;;;5143605;27;20201;-81
2022/01/04 03:38:48;;;;;;;0.40;0.30;;;7.10;99.90;;;;;;5142940;27;20194;-79
2022/01/04 03:41:14;;;;;;;0.40;0.40;;;7.10;99.90;;;;;;5143601;27;20210;-81
2022/01/04 03:43:41;;;;;;;0.40;0.30;;;7.10;99.90;;;;;;5143601;27;20187;-82
2022/01/04 03:46:09;;;;;;;0.85;0.65;;;7.20;99.90;;;;;;5143220;27;20199;-81
2022/01/04 03:48:37;;;;;;;0.40;0.40;;;7.20;99.90;;;;;;5143645;27;20197;-81
2022/01/04 03:51:05;;;;;;;0.40;0.40;;;7.20;99.90;;;;;;5141349;27;20223;-81
2022/01/04 03:53:32;;;;;;;2.05;1.95;;;7.20;99.90;;;;;;5141489;27;20195;-81
2022/01/04 03:55:59;;;;;;;1.63;1.15;;;7.20;99.90;;;;;;5142585;27;20191;-82
2022/01/04 03:58:26;;;;;;;0.60;0.60;;;7.10;99.90;;;;;;5141133;27;20194;-80
2022/01/04 04:00:52;;;;;;;0.80;0.70;;;7.10;99.90;;;;;;5141791;27;20218;-81
2022/01/04 04:03:21;;;;;;;0.63;0.63;;;7.20;99.90;;;;;;5141211;27;20192;-82
2022/01/04 04:05:49;;;;;;;2.30;0.70;;;7.20;99.90;;;;;;5140787;27;20198;-81
2022/01/04 04:08:16;;;;;;;0.70;0.70;;;7.20;99.90;;;;;;5141530;27;20196;-81
2022/01/04 04:10:43;;;;;;;0.50;0.50;;;7.10;99.90;;;;;;5140605;27;20213;-81
2022/01/04 04:13:10;;;;;;;0.50;0.50;;;7.20;99.90;;;;;;5139483;27;20213;-81
2022/01/04 04:15:40;;;;;;;3.75;1.15;;;7.10;99.90;;;;;;5139760;27;20218;-81
2022/01/04 04:18:07;;;;;;;0.65;0.57;;;7.10;99.90;;;;;;5140390;27;20198;-81
2022/01/04 04:20:35;;;;;;;0.82;0.50;;;7.10;99.90;;;;;;5139177;27;20214;-80
2022/01/04 04:23:02;;;;;;;0.55;0.55;;;7.20;99.90;;;;;;5138943;27;20191;-81
2022/01/04 04:25:29;;;;;;;0.50;0.50;;;7.10;99.90;;;;;;5138871;27;20201;-81
2022/01/04 04:27:55;;;;;;;2.25;0.73;;;7.20;99.90;;;;;;5138474;27;20668;-80
2022/01/04 04:30:22;;;;;;;1.38;1.15;;;7.20;99.90;;;;;;5138303;27;20215;-78
2022/01/04 04:32:49;;;;;;;23.83;3.50;;;7.20;99.90;;;;;;5139390;27;20198;-80
2022/01/04 04:35:16;;;;;;;0.93;0.82;;;7.20;99.90;;;;;;5137639;27;20233;-81
2022/01/04 04:37:44;;;;;;;1.20;0.82;;;7.20;99.90;;;;;;5138669;27;20667;-81
2022/01/04 04:40:11;;;;;;;0.40;0.40;;;7.20;99.90;;;;;;5137918;27;20214;-81
2022/01/04 04:42:38;;;;;;;1.67;1.25;;;7.20;99.90;;;;;;5138276;27;20209;-81
2022/01/04 04:45:07;;;;;;;1.55;1.45;;;7.20;99.90;;;;;;5137680;27;20205;-81
2022/01/04 04:47:34;;;;;;;0.60;0.60;;;7.10;99.90;;;;;;5138497;27;20203;-81
2022/01/04 04:50:01;;;;;;;2.15;1.55;;;7.10;99.90;;;;;;5136336;27;20222;-80
2022/01/04 04:52:27;;;;;;;1.77;0.82;;;7.10;99.90;;;;;;5138118;27;20197;-78
2022/01/04 04:54:56;;;;;;;0.43;0.43;;;7.10;99.90;;;;;;5137775;27;20683;-80
2022/01/04 04:57:22;;;;;;;1.15;0.77;;;7.10;99.90;;;;;;5136943;27;20716;-80
2022/01/04 04:59:49;;;;;;;1.40;0.50;;;7.10;99.90;;;;;;5137549;27;20580;-80
2022/01/04 05:02:16;;;;;;;1.05;1.05;;;7.10;99.90;;;;;;5137460;27;20199;-80
2022/01/04 05:04:42;;;;;;;1.02;1.02;;;7.10;99.90;;;;;;5137755;27;20190;-81
2022/01/04 05:07:09;;;;;;;0.50;0.50;;;7.10;99.90;;;;;;5137336;27;20200;-81
2022/01/04 05:09:36;;;;;;;0.60;0.52;;;7.10;99.90;;;;;;5137589;27;20203;-81
2022/01/04 05:12:06;;;;;;;0.68;0.63;;;7.10;99.90;;;;;;5136399;27;20789;-81
2022/01/04 05:14:32;;;;;;;1.65;1.55;;;7.10;99.90;;;;;;5136035;27;20568;-80
2022/01/04 05:16:59;;;;;;;1.35;1.25;;;7.10;99.90;;;;;;5136078;27;20706;-80
2022/01/04 05:19:26;;;;;;;0.40;0.40;;;7.10;99.90;;;;;;5135818;27;20199;-81
2022/01/04 05:21:52;;;;;;;0.40;0.40;;;7.20;99.90;;;;;;5136386;27;20198;-81
2022/01/04 05:24:19;;;;;;;1.50;1.40;;;7.20;99.90;;;;;;5136269;27;20261;-80
2022/01/04 05:26:46;;;;;;;3.42;2.13;;;7.20;99.90;;;;;;5136766;27;20202;-79
2022/01/04 05:29:14;;;;;;;0.45;0.40;;;7.10;99.90;;;;;;5135715;27;20199;-82
2022/01/04 05:31:41;;;;;;;1.25;1.25;;;7.10;99.90;;;;;;5135850;27;20226;-80
2022/01/04 05:34:07;;;;;;;4.70;3.10;;;7.20;99.90;;;;;;5135878;28;20219;-81
2022/01/04 05:36:35;;;;;;;0.60;0.50;;;7.10;99.90;;;;;;5136547;28;20224;-81
2022/01/04 05:39:01;;;;;;;0.50;0.40;;;7.20;99.90;;;;;;5135519;28;20191;-80
2022/01/04 05:41:28;;;;;;;1.25;0.60;;;7.20;99.90;;;;;;5136964;28;20246;-79
2022/01/04 05:43:55;;;;;;;0.75;0.75;;;7.20;99.90;;;;;;5136483;28;20214;-79
2022/01/04 05:46:23;;;;;;;1.00;1.00;;;7.20;99.90;;;;;;5136810;28;20206;-81
2022/01/04 05:48:50;;;;;;;0.95;0.95;;;7.20;99.90;;;;;;5135925;28;20224;-80
2022/01/04 05:51:17;;;;;;;0.40;0.40;;;7.20;99.90;;;;;;5136784;28;20255;-80
2022/01/04 05:53:44;;;;;;;0.98;0.98;;;7.20;99.90;;;;;;5136916;28;20195;-81
2022/01/04 05:56:10;;;;;;;0.40;0.35;;;7.20;99.90;;;;;;5136283;28;20202;-80
2022/01/04 05:58:37;;;;;;;1.67;1.35;;;7.20;99.90;;;;;;5136347;28;20202;-80
2022/01/04 06:01:04;;;;;;;2.28;1.30;;;7.20;99.90;;;;;;5134988;28;20676;-82
2022/01/04 06:03:32;;;;;;;2.15;1.60;;;7.20;99.90;;;;;;5136340;28;20194;-82
2022/01/04 06:05:59;;;;;;;0.50;0.43;;;7.20;99.90;;;;;;5136345;28;20224;-81
2022/01/04 06:08:31;;;;;;;0.50;0.50;;;7.20;99.90;;;;;;5136896;28;20216;-81
2022/01/04 06:10:58;;;;;;;0.50;0.50;;;7.20;99.90;;;;;;5135747;28;20230;-81
2022/01/04 06:16:09;;;;;;;0.82;0.82;;;7.20;99.90;;;;;;5136109;28;20263;-81
2022/01/04 06:18:41;;;;;;;0.95;0.95;;;7.20;99.90;;;;;;5136881;28;20206;-79
2022/01/04 06:21:08;;;;;;;1.58;0.95;;;7.20;99.90;;;;;;5136261;28;20219;-81
2022/01/04 06:23:35;;;;;;;2.90;1.65;;;7.20;99.90;;;;;;5136496;28;20195;-81
2022/01/04 06:26:02;;;;;;;1.40;1.30;;;7.20;99.90;;;;;;5136326;28;20211;-80
2022/01/04 06:28:28;;;;;;;3.17;2.05;;;7.20;99.90;;;;;;5137205;27;20203;-80
2022/01/04 06:30:55;;;;;;;2.38;1.10;;;7.20;99.90;;;;;;5140926;27;20219;-81
2022/01/04 06:33:23;;;;;;;0.40;0.30;;;7.20;99.90;;;;;;5141010;27;20275;-79
2022/01/04 06:35:51;;;;;;;2.90;2.80;;;7.20;99.90;;;;;;5140801;27;20651;-79
2022/01/04 06:38:18;;;;;;;1.77;1.63;;;7.20;99.90;;;;;;5140174;27;20198;-80
2022/01/04 06:40:45;;;;;;;1.55;1.52;;;7.20;99.90;;;;;;5138486;27;20209;-80
2022/01/04 06:43:12;;;;;;;1.75;1.65;;;7.20;99.90;;;;;;5139715;27;20197;-80
2022/01/04 06:45:38;;;;;;;1.50;1.40;;;7.20;99.90;;;;;;5140018;27;20190;-80
2022/01/04 06:48:06;;;;;;;1.05;0.95;;;7.10;99.90;;;;;;5139705;27;20194;-80
2022/01/04 06:50:33;;;;;;;1.20;1.15;;;7.10;99.90;;;;;;5139124;27;20223;-80
2022/01/04 06:53:01;;;;;;;2.67;2.40;;;7.10;99.90;;;;;;5141971;27;20201;-79
2022/01/04 06:55:27;;;;;;;6.00;3.67;;;7.10;99.90;;;;;;5141651;27;20682;-79
2022/01/04 06:57:54;;;;;;;1.98;1.88;;;7.10;99.90;;;;;;5139568;27;20195;-80
2022/01/04 07:00:21;;;;;;;3.10;1.02;;;7.10;99.90;;;;;;5139392;27;20218;-81
2022/01/04 07:02:48;;;;;;;0.50;0.40;;;7.10;99.90;;;;;;5139854;27;20197;-81
2022/01/04 07:05:15;;;;;;;2.53;1.95;;;7.10;99.90;;;;;;5139198;27;20568;-80
2022/01/04 07:07:42;;;;;;;0.77;0.77;;;7.10;99.90;;;;;;5139980;27;20194;-81
2022/01/04 07:10:10;;;;;;;1.35;1.20;;;7.10;99.90;;;;;;5140195;27;20218;-80
2022/01/04 07:12:37;;;;;;;3.72;3.53;;;7.10;99.90;;;;;;5139254;27;20218;-80
2022/01/04 07:15:04;;;;;;;1.35;0.60;;;7.10;99.90;;;;;;5139802;27;20674;-80
2022/01/04 07:17:31;;;;;;;0.50;0.43;;;7.10;99.90;;;;;;5139376;27;20203;-80
2022/01/04 07:19:58;;;;;;;5.40;3.58;;;7.10;99.90;;;;;;5138705;27;20222;-80
2022/01/04 07:22:25;;;;;;;2.38;2.28;;;7.20;99.90;;;;;;5140208;27;20219;-80
2022/01/04 07:24:52;;;;;;;1.55;1.48;;;7.10;99.90;;;;;;5139567;27;20195;-80
2022/01/04 07:27:20;;;;;;;0.60;0.60;;;7.10;99.90;;;;;;5139207;27;20195;-81
2022/01/04 07:29:47;;;;;;;1.15;1.13;;;7.10;99.90;;;;;;5138956;27;20225;-81
2022/01/04 07:32:13;;;;;;;3.45;2.67;;;7.10;99.90;;;;;;5138904;27;20220;-80
2022/01/04 07:34:40;;;;;;;1.98;1.75;;;7.10;99.90;;;;;;5140182;27;20553;-79
2022/01/04 07:37:07;;;;;;;7.82;2.15;;;7.10;99.90;;;;;;5139368;27;20270;-81
2022/01/04 07:39:34;;;;;;;0.50;0.43;;;7.10;99.90;;;;;;5139982;27;20209;-82
2022/01/04 07:42:02;;;;;;;0.90;0.90;;;7.20;99.90;;;;;;5138376;27;20609;-81
2022/01/04 07:44:30;;;;;;;2.25;1.77;;;7.20;99.90;;;;;;5139410;27;20553;-81
2022/01/04 07:46:57;;;;;;;0.50;0.50;;;7.20;99.90;;;;;;5139594;27;20202;-81
2022/01/04 07:49:24;;;;;;;3.80;2.15;;;7.10;99.90;;;;;;5139341;27;20593;-80
2022/01/04 07:51:50;;;;;;;0.60;0.60;;;7.10;99.90;;;;;;5139483;27;20225;-81
2022/01/04 07:54:17;;;;;;;0.75;0.75;;;7.10;99.90;;;;;;5139369;27;20198;-81
2022/01/04 07:56:44;;;;;;;2.08;1.98;;;7.10;99.90;;;;;;5139258;27;20504;-81
2022/01/04 07:59:11;;;;;;;4.15;1.88;;;7.10;99.90;;;;;;5138295;27;20198;-83
2022/01/04 08:01:39;;;;;;;3.95;1.50;;;7.10;99.90;;;;;;5140005;27;20238;-80
2022/01/04 08:04:07;;;;;;;0.40;0.40;;;7.10;99.90;;;;;;5139023;27;20201;-80
2022/01/04 08:06:34;;;;;;;5.30;3.60;;;7.10;99.90;;;;;;5138180;27;20203;-80
2022/01/04 08:09:00;;;;;;;0.90;0.90;;;7.20;99.90;;;;;;5138187;27;20198;-81
2022/01/04 08:11:27;;;;;;;0.60;0.50;;;7.20;99.90;;;;;;5138378;27;20214;-81
2022/01/04 08:13:54;;;;;;;3.15;2.85;;;7.20;99.90;;;;;;5138740;27;20201;-82
2022/01/04 08:16:21;;;;;;;2.70;1.85;;;7.10;99.90;;;;;;5138994;27;20195;-83
2022/01/04 08:18:49;;;;;;;0.93;0.73;;;7.10;99.90;;;;;;5139366;27;20199;-80
2022/01/04 08:21:16;;;;;;;13.75;3.97;;;7.10;99.90;;;;;;5139439;27;20221;-82
2022/01/04 08:23:43;;;;;;;0.40;0.40;;;7.10;99.90;;;;;;5138894;27;20195;-82
2022/01/04 08:26:09;;;;;;;1.17;1.08;;;7.10;99.90;;;;;;5138758;27;20198;-81
2022/01/04 08:28:36;;;;;;;2.42;1.58;;;7.10;99.90;;;;;;5138441;27;20209;-82
2022/01/04 08:31:03;;;;;;;0.40;0.40;;;7.10;99.90;;;;;;5137973;27;20214;-82
2022/01/04 08:33:30;;;;;;;2.15;2.05;;;7.10;99.90;;;;;;5138506;27;20236;-82
2022/01/04 08:35:58;;;;;;;2.45;2.25;;;7.10;99.90;;;;;;5137951;27;20211;-82
2022/01/04 08:38:25;;;;;;;2.05;1.60;;;7.10;99.90;;;;;;5138116;27;20195;-81
2022/01/04 08:40:51;;;;;;;0.50;0.50;;;7.10;99.90;;;;;;5138600;27;20231;-82
2022/01/04 08:43:19;;;;;;;0.40;0.40;;;7.10;99.90;;;;;;5136660;27;20198;-83
2022/01/04 08:45:46;;;;;;;1.92;1.85;;;7.10;99.90;;;;;;5138363;27;20199;-83
2022/01/04 08:48:12;;;;;;;1.35;1.35;;;7.10;99.90;;;;;;5138920;27;20581;-82
2022/01/04 08:50:40;;;;;;;4.50;3.53;;;7.10;99.90;;;;;;5137867;27;20218;-83
2022/01/04 08:53:11;;;;;;;1.50;1.23;;;7.10;99.90;;;;;;5136567;27;20218;-83
2022/01/04 08:55:38;;;;;;;3.30;2.55;;;7.10;99.90;;;;;;5139466;22;20554;-77
2022/01/04 08:58:05;;;;;;;1.85;1.75;;;7.00;99.90;;;;;;5091505;28;20257;-78
2022/01/04 09:00:32;;;;;;;4.65;3.85;;;7.00;99.90;;;;;;5099846;28;20551;-78
2022/01/04 09:03:00;;;;;;;1.15;1.05;;;7.00;99.90;;;;;;5092011;28;20212;-78
2022/01/04 09:05:27;;;;;;;2.25;2.15;;;7.00;99.90;;;;;;5107066;28;20617;-76
2022/01/04 09:07:54;;;;;;;10.25;2.45;;;7.00;99.90;;;;;;5112531;28;20202;-78
2022/01/04 09:10:22;;;;;;;4.20;2.92;;;7.00;99.90;;;;;;5111828;28;20200;-80
2022/01/04 09:12:56;;;;;;;2.97;2.50;;;7.10;99.90;;;;;;5112627;28;20216;-77
2022/01/04 09:15:33;;;;;;;1.52;1.42;;;7.10;99.90;;;;;;5102702;28;20695;-77
2022/01/04 09:20:47;;;;;;;2.88;1.83;;;7.10;99.90;;;;;;5112070;28;20599;-79
2022/01/04 09:23:16;;;;;;;3.03;2.40;;;7.10;99.90;;;;;;5113639;28;20243;-81
2022/01/04 09:25:44;;;;;;;3.15;1.75;;;7.10;99.90;;;;;;5114036;28;20219;-80
2022/01/04 09:28:10;;;;;;;10.20;3.03;;;7.10;99.90;;;;;;5114364;28;20192;-80
2022/01/04 09:30:38;;;;;;;5.20;3.67;;;7.10;99.90;;;;;;5113879;28;20213;-80
2022/01/04 09:33:06;;;;;;;1.30;1.20;;;7.10;99.90;;;;;;5113751;28;20214;-79
2022/01/04 09:35:33;;;;;;;3.35;3.05;;;7.10;99.90;;;;;;5113790;28;20207;-79
2022/01/04 09:37:59;;;;;;;3.33;3.13;;;7.10;99.90;;;;;;5099847;28;20577;-80
2022/01/04 09:40:26;;;;;;;0.63;0.63;;;7.10;99.90;;;;;;5116922;28;20189;-78
2022/01/04 09:42:55;;;;;;;0.77;0.75;;;7.10;99.90;;;;;;5123962;28;20192;-80
2022/01/04 09:45:22;;;;;;;2.78;1.40;;;7.20;99.90;;;;;;5115897;28;20225;-79
2022/01/04 09:47:49;;;;;;;1.40;1.15;;;7.20;99.90;;;;;;5113914;28;20211;-78
2022/01/04 09:50:16;;;;;;;7.20;2.72;;;7.20;99.90;;;;;;5112882;28;20197;-79
2022/01/04 09:52:46;;;;;;;4.78;4.35;;;7.20;99.90;;;;;;5113557;28;20226;-79
2022/01/04 09:55:15;;;;;;;2.08;1.88;;;7.20;99.90;;;;;;5116609;28;20219;-79
2022/01/04 09:57:42;;;;;;;10.35;2.83;;;7.20;99.90;;;;;;5114884;28;20231;-79
2022/01/04 10:00:14;;;;;;;4.07;2.38;;;7.20;99.90;;;;;;5114191;28;20192;-79
2022/01/04 10:02:41;;;;;;;2.10;2.00;;;7.20;99.90;;;;;;5113375;28;20186;-78
2022/01/04 10:05:16;;;;;;;2.72;2.45;;;7.20;99.90;;;;;;5116765;28;20216;-79
2022/01/04 10:07:44;;;;;;;2.65;1.88;;;7.20;99.90;;;;;;5116386;28;20199;-81
2022/01/04 10:10:11;;;;;;;0.52;0.52;;;7.20;99.90;;;;;;5102374;28;20200;-79
2022/01/04 10:12:55;;;;;;;3.33;1.88;;;7.20;99.90;;;;;;5116838;28;20578;-78
2022/01/04 10:15:38;;;;;;;1.55;0.75;;;7.20;99.90;;;;;;5115634;28;20268;-79
2022/01/04 10:18:23;;;;;;;2.03;1.33;;;7.20;99.90;;;;;;5116563;28;20189;-79
2022/01/04 10:20:52;;;;;;;0.40;0.30;;;7.30;99.90;;;;;;5116057;28;20219;-79
2022/01/04 10:23:22;;;;;;;4.90;3.72;;;7.30;99.90;;;;;;5114580;28;20191;-79
2022/01/04 10:25:50;;;;;;;2.67;2.42;;;7.30;99.90;;;;;;5116211;28;20210;-78
2022/01/04 10:28:31;;;;;;;3.50;3.28;;;7.30;99.90;;;;;;5115989;28;20192;-78
2022/01/04 10:31:02;;;;;;;1.83;1.75;;;7.30;99.90;;;;;;5116324;28;20198;-79
2022/01/04 10:33:31;;;;;;;0.50;0.40;;;7.30;99.90;;;;;;5116853;28;20224;-80
2022/01/04 10:35:58;;;;;;;0.70;0.70;;;7.30;99.90;;;;;;5116706;28;20232;-79
2022/01/04 10:38:27;;;;;;;3.60;1.52;;;7.40;99.90;;;;;;5116790;28;20200;-79
2022/01/04 10:41:00;;;;;;;0.40;0.40;;;7.40;99.90;;;;;;5115582;28;20247;-76
2022/01/04 10:43:28;;;;;;;1.30;1.10;;;7.30;99.90;;;;;;5116645;28;20261;-78
2022/01/04 10:45:57;;;;;;;1.85;1.20;;;7.40;99.90;;;;;;5116354;28;20588;-78
2022/01/04 10:48:27;;;;;;;6.07;3.67;;;7.30;99.90;;;;;;5114955;28;20202;-77
2022/01/04 10:50:56;;;;;;;1.00;1.00;;;7.30;99.90;;;;;;5115745;28;20188;-75
2022/01/04 10:53:28;;;;;;;2.65;2.45;;;7.30;99.90;;;;;;5115470;28;20219;-77
2022/01/04 10:55:57;;;;;;;1.95;1.85;;;7.30;99.90;;;;;;5114163;28;20238;-78
2022/01/04 10:58:30;;;;;;;10.10;5.78;;;7.30;99.90;;;;;;5114339;28;20203;-78
2022/01/04 11:01:00;;;;;;;1.50;1.40;;;7.30;99.90;;;;;;5114498;28;20198;-77
2022/01/04 11:03:31;;;;;;;5.50;5.05;;;7.40;99.90;;;;;;5114871;28;20192;-78
2022/01/04 11:06:06;;;;;;;5.80;3.78;;;7.40;99.90;;;;;;5114468;28;20229;-78
2022/01/04 11:08:34;;;;;;;4.70;1.33;;;7.40;99.90;;;;;;5098269;28;20218;-78
2022/01/04 11:11:01;;;;;;;8.13;3.45;;;7.40;99.90;;;;;;5114426;28;20187;-78
2022/01/04 11:13:28;;;;;;;1.48;0.88;;;7.40;99.90;;;;;;5115016;28;20576;-77
2022/01/04 11:15:55;;;;;;;0.40;0.30;;;7.40;99.90;;;;;;5114549;28;20623;-78
2022/01/04 11:18:23;;;;;;;3.35;1.15;;;7.40;99.90;;;;;;5118411;28;20199;-79
2022/01/04 11:20:51;;;;;;;1.90;1.80;;;7.50;99.90;;;;;;5117417;28;20205;-78
2022/01/04 11:23:24;;;;;;;3.47;2.90;;;7.50;99.90;;;;;;5115844;28;20199;-78
2022/01/04 11:25:52;;;;;;;0.80;0.80;;;7.50;99.90;;;;;;5115330;28;20212;-77
2022/01/04 11:28:20;;;;;;;7.65;2.95;;;7.50;99.90;;;;;;5115177;28;20196;-77
2022/01/04 11:31:01;;;;;;;0.70;0.70;;;7.60;99.90;;;;;;5118282;28;20194;-78
2022/01/04 11:33:31;;;;;;;0.63;0.63;;;7.60;99.90;;;;;;5120036;28;20211;-78
2022/01/04 11:36:00;;;;;;;2.25;1.58;;;7.60;99.90;;;;;;5117372;28;20317;-79
2022/01/04 11:38:35;;;;;;;5.22;3.70;;;7.60;99.90;;;;;;5115779;28;20700;-77
2022/01/04 11:41:02;;;;;;;1.10;1.10;;;7.60;99.90;;;;;;5114494;28;20191;-78
2022/01/04 11:43:32;;;;;;;2.33;2.20;;;7.60;99.90;;;;;;5113567;28;20192;-77
2022/01/04 11:45:59;;;;;;;3.55;3.25;;;7.60;99.90;;;;;;5113658;28;20216;-78
2022/01/04 11:48:28;;;;;;;6.05;2.78;;;7.60;99.90;;;;;;5113923;28;20199;-78
2022/01/04 11:50:56;;;;;;;9.98;2.38;;;7.60;99.90;;;;;;5113649;28;20804;-74
2022/01/04 11:53:24;;;;;;;4.13;2.75;;;7.60;99.90;;;;;;5113715;28;20211;-77
2022/01/04 11:55:53;;;;;;;2.25;1.75;;;7.60;99.90;;;;;;5113611;28;20230;-76
2022/01/04 11:58:24;;;;;;;6.60;5.65;;;7.60;99.90;;;;;;5114110;28;20207;-77
2022/01/04 12:01:04;;;;;;;2.90;2.70;;;7.70;99.90;;;;;;5112481;28;20199;-78
2022/01/04 12:03:47;;;;;;;2.22;2.13;;;7.70;99.90;;;;;;5105049;28;20188;-77
2022/01/04 12:06:14;;;;;;;1.33;1.27;;;7.70;99.90;;;;;;5113448;28;20220;-76
2022/01/04 12:08:48;;;;;;;2.63;1.65;;;7.70;99.90;;;;;;5113115;28;20515;-76
2022/01/04 12:11:23;;;;;;;1.52;1.42;;;7.70;99.90;;;;;;5113120;28;20206;-77
2022/01/04 12:13:52;;;;;;;2.30;2.20;;;7.70;99.90;;;;;;5113242;28;20218;-77
2022/01/04 12:16:33;;;;;;;4.22;3.47;;;7.70;99.90;;;;;;5113163;28;20220;-78
2022/01/04 12:19:05;;;;;;;7.53;3.30;;;7.70;99.90;;;;;;5096501;28;20195;-77
2022/01/04 12:21:44;;;;;;;6.90;3.60;;;7.70;99.90;;;;;;5113360;28;20203;-78
2022/01/04 12:24:21;;;;;;;2.35;1.90;;;7.70;99.90;;;;;;5112933;28;20191;-77
2022/01/04 12:26:48;;;;;;;1.20;1.20;;;7.80;99.90;;;;;;5113041;28;20211;-77
2022/01/04 12:29:27;;;;;;;1.25;1.25;;;7.80;99.90;;;;;;5112879;28;20192;-77
2022/01/04 12:31:58;;;;;;;0.95;0.95;;;7.80;99.90;;;;;;5113272;28;20731;-77
2022/01/04 12:34:35;;;;;;;0.60;0.50;;;7.80;99.90;;;;;;5112854;28;20303;-78
2022/01/04 12:37:03;;;;;;;0.68;0.68;;;7.80;99.90;;;;;;5113535;28;20215;-77
2022/01/04 12:39:38;;;;;;;4.75;2.35;;;7.90;99.90;;;;;;5112816;28;20201;-77
2022/01/04 12:42:06;;;;;;;2.35;2.25;;;7.80;99.90;;;;;;5113515;28;20201;-77
2022/01/04 12:44:33;;;;;;;4.60;3.13;;;7.80;99.90;;;;;;5111936;28;20282;-78
2022/01/04 12:47:00;;;;;;;3.72;1.88;;;7.80;99.90;;;;;;5112655;28;20223;-78
2022/01/04 12:49:29;;;;;;;4.22;3.90;;;7.90;99.90;;;;;;5113013;28;20189;-77
2022/01/04 12:51:59;;;;;;;6.15;5.32;;;7.80;99.90;;;;;;5113185;28;20195;-77
2022/01/04 12:54:29;;;;;;;2.38;1.95;;;7.80;99.90;;;;;;5112996;28;20585;-78
2022/01/04 12:56:59;;;;;;;3.63;2.15;;;7.80;99.90;;;;;;5112182;28;20224;-77
2022/01/04 12:59:31;;;;;;;0.90;0.90;;;7.80;99.90;;;;;;5112261;28;20191;-78
2022/01/04 13:01:59;;;;;;;12.52;5.28;;;7.80;99.90;;;;;;5108983;28;20245;-74
2022/01/04 13:04:28;;;;;;;0.95;0.95;;;7.80;99.90;;;;;;5109469;28;20282;-77
2022/01/04 13:06:56;;;;;;;0.40;0.40;;;7.80;99.90;;;;;;5112101;28;20220;-77
2022/01/04 13:09:24;;;;;;;0.40;0.32;;;7.80;99.90;;;;;;5111899;28;20196;-78
2022/01/04 13:11:52;;;;;;;0.90;0.90;;;7.80;99.90;;;;;;5112155;28;20196;-76